sensor_id;sensor_type;location;lat;lon;timestamp;pressure;altitude;pressure_sealevel;temperature;humidity
29315;BME280;16320;53.954;9.506;2023-03-03T00:03:01;102354.66;;;0.32;100.00
29315;BME280;16320;53.954;9.506;2023-03-03T00:06:11;102354.59;;;0.29;100.00
29315;BME280;16320;53.954;9.506;2023-03-03T00:09:15;102360.63;;;0.28;100.00
29315;BME280;16320;53.954;9.506;2023-03-03T00:12:27;102353.81;;;0.33;100.00
29315;BME280;16320;53.954;9.506;2023-03-03T00:15:32;102369.31;;;0.33;100.00
29315;BME280;16320;53.954;9.506;2023-03-03T00:18:45;102366.75;;;0.33;100.00
29315;BME280;16320;53.954;9.506;2023-03-03T00:21:51;102361.63;;;0.36;100.00
29315;BME280;16320;53.954;9.506;2023-03-03T00:25:30;102367.66;;;0.36;100.00
29315;BME280;16320;53.954;9.506;2023-03-03T00:28:51;102366.47;;;0.17;100.00
29315;BME280;16320;53.954;9.506;2023-03-03T00:32:43;102363.78;;;0.13;100.00
29315;BME280;16320;53.954;9.506;2023-03-03T00:35:55;102363.03;;;0.18;100.00
29315;BME280;16320;53.954;9.506;2023-03-03T00:39:37;102376.03;;;0.22;100.00
29315;BME280;16320;53.954;9.506;2023-03-03T00:42:55;102378.56;;;0.18;100.00
29315;BME280;16320;53.954;9.506;2023-03-03T00:46:01;102373.25;;;0.12;100.00
29315;BME280;16320;53.954;9.506;2023-03-03T00:49:20;102372.56;;;0.20;100.00
29315;BME280;16320;53.954;9.506;2023-03-03T00:52:33;102376.84;;;0.21;100.00
29315;BME280;16320;53.954;9.506;2023-03-03T00:55:38;102370.91;;;0.25;100.00
29315;BME280;16320;53.954;9.506;2023-03-03T00:58:43;102375.16;;;0.23;100.00
29315;BME280;16320;53.954;9.506;2023-03-03T01:01:49;102369.97;;;0.20;100.00
29315;BME280;16320;53.954;9.506;2023-03-03T01:04:53;102367.34;;;0.18;100.00
29315;BME280;16320;53.954;9.506;2023-03-03T01:08:02;102371.63;;;0.17;100.00
29315;BME280;16320;53.954;9.506;2023-03-03T01:11:16;102371.56;;;0.14;100.00
29315;BME280;16320;53.954;9.506;2023-03-03T01:14:23;102371.59;;;0.16;100.00
29315;BME280;16320;53.954;9.506;2023-03-03T01:17:28;102364.75;;;0.16;100.00
29315;BME280;16320;53.954;9.506;2023-03-03T01:20:32;102366.41;;;0.14;100.00
29315;BME280;16320;53.954;9.506;2023-03-03T01:23:37;102364.63;;;0.10;100.00
29315;BME280;16320;53.954;9.506;2023-03-03T01:26:41;102376.75;;;0.14;100.00
29315;BME280;16320;53.954;9.506;2023-03-03T01:29:46;102370.78;;;0.17;100.00
29315;BME280;16320;53.954;9.506;2023-03-03T01:32:50;102374.19;;;0.16;100.00
29315;BME280;16320;53.954;9.506;2023-03-03T01:35:55;102374.91;;;0.07;100.00
29315;BME280;16320;53.954;9.506;2023-03-03T01:39:00;102373.97;;;0.04;100.00
29315;BME280;16320;53.954;9.506;2023-03-03T01:42:04;102371.19;;;-0.07;100.00
29315;BME280;16320;53.954;9.506;2023-03-03T01:45:31;102368.66;;;-0.04;100.00
29315;BME280;16320;53.954;9.506;2023-03-03T01:48:45;102363.44;;;-0.07;100.00
29315;BME280;16320;53.954;9.506;2023-03-03T01:52:31;102358.19;;;-0.12;100.00
29315;BME280;16320;53.954;9.506;2023-03-03T01:55:36;102352.22;;;-0.09;100.00
29315;BME280;16320;53.954;9.506;2023-03-03T01:58:50;102359.06;;;-0.11;100.00
29315;BME280;16320;53.954;9.506;2023-03-03T02:01:56;102359.69;;;-0.23;100.00
29315;BME280;16320;53.954;9.506;2023-03-03T02:05:00;102354.25;;;-0.39;100.00
29315;BME280;16320;53.954;9.506;2023-03-03T02:08:05;102349.00;;;-0.42;100.00
29315;BME280;16320;53.954;9.506;2023-03-03T02:11:11;102345.59;;;-0.41;100.00
29315;BME280;16320;53.954;9.506;2023-03-03T02:14:16;102343.81;;;-0.43;100.00
29315;BME280;16320;53.954;9.506;2023-03-03T02:17:20;102335.22;;;-0.44;100.00
29315;BME280;16320;53.954;9.506;2023-03-03T02:24:23;102347.50;;;-0.30;100.00
29315;BME280;16320;53.954;9.506;2023-03-03T02:27:30;102348.50;;;-0.24;100.00
29315;BME280;16320;53.954;9.506;2023-03-03T02:30:38;102352.78;;;-0.26;100.00
29315;BME280;16320;53.954;9.506;2023-03-03T02:33:46;102343.25;;;-0.28;100.00
29315;BME280;16320;53.954;9.506;2023-03-03T02:36:50;102329.56;;;-0.24;100.00
29315;BME280;16320;53.954;9.506;2023-03-03T02:39:55;102336.41;;;-0.25;100.00
29315;BME280;16320;53.954;9.506;2023-03-03T02:43:01;102338.16;;;-0.24;100.00
29315;BME280;16320;53.954;9.506;2023-03-03T02:46:08;102334.63;;;-0.29;100.00
29315;BME280;16320;53.954;9.506;2023-03-03T02:49:19;102347.41;;;-0.35;100.00
29315;BME280;16320;53.954;9.506;2023-03-03T02:52:24;102340.09;;;-0.58;100.00
29315;BME280;16320;53.954;9.506;2023-03-03T02:55:28;102351.06;;;-0.68;100.00
29315;BME280;16320;53.954;9.506;2023-03-03T02:58:33;102350.94;;;-0.74;100.00
29315;BME280;16320;53.954;9.506;2023-03-03T03:01:37;102348.03;;;-0.88;100.00
29315;BME280;16320;53.954;9.506;2023-03-03T03:04:42;102340.25;;;-0.89;100.00
29315;BME280;16320;53.954;9.506;2023-03-03T03:07:47;102338.59;;;-0.87;100.00
29315;BME280;16320;53.954;9.506;2023-03-03T03:10:51;102346.22;;;-0.94;100.00
29315;BME280;16320;53.954;9.506;2023-03-03T03:13:56;102347.75;;;-1.02;100.00
29315;BME280;16320;53.954;9.506;2023-03-03T03:17:00;102332.34;;;-0.99;100.00
29315;BME280;16320;53.954;9.506;2023-03-03T03:20:05;102334.16;;;-0.93;100.00
29315;BME280;16320;53.954;9.506;2023-03-03T03:23:10;102331.75;;;-0.85;100.00
29315;BME280;16320;53.954;9.506;2023-03-03T03:26:15;102337.13;;;-0.76;100.00
29315;BME280;16320;53.954;9.506;2023-03-03T03:29:19;102332.06;;;-0.70;100.00
29315;BME280;16320;53.954;9.506;2023-03-03T03:32:23;102332.19;;;-0.64;100.00
29315;BME280;16320;53.954;9.506;2023-03-03T03:35:28;102327.97;;;-0.62;100.00
29315;BME280;16320;53.954;9.506;2023-03-03T03:38:33;102329.69;;;-0.61;100.00
29315;BME280;16320;53.954;9.506;2023-03-03T03:41:39;102327.03;;;-0.64;100.00
29315;BME280;16320;53.954;9.506;2023-03-03T03:44:44;102332.88;;;-0.74;100.00
29315;BME280;16320;53.954;9.506;2023-03-03T03:47:49;102325.06;;;-0.77;100.00
29315;BME280;16320;53.954;9.506;2023-03-03T03:50:53;102325.25;;;-0.68;100.00
29315;BME280;16320;53.954;9.506;2023-03-03T03:53:57;102320.84;;;-0.72;100.00
29315;BME280;16320;53.954;9.506;2023-03-03T03:57:02;102313.94;;;-0.75;100.00
29315;BME280;16320;53.954;9.506;2023-03-03T04:00:08;102312.13;;;-0.79;100.00
29315;BME280;16320;53.954;9.506;2023-03-03T04:03:12;102310.41;;;-0.78;100.00
29315;BME280;16320;53.954;9.506;2023-03-03T04:06:20;102310.47;;;-0.75;100.00
29315;BME280;16320;53.954;9.506;2023-03-03T04:09:24;102301.81;;;-0.79;100.00
29315;BME280;16320;53.954;9.506;2023-03-03T04:12:28;102294.84;;;-0.83;100.00
29315;BME280;16320;53.954;9.506;2023-03-03T04:15:33;102301.63;;;-0.86;100.00
29315;BME280;16320;53.954;9.506;2023-03-03T04:18:37;102305.06;;;-0.87;100.00
29315;BME280;16320;53.954;9.506;2023-03-03T04:21:41;102302.44;;;-0.90;100.00
29315;BME280;16320;53.954;9.506;2023-03-03T04:24:46;102303.34;;;-0.87;100.00
29315;BME280;16320;53.954;9.506;2023-03-03T04:27:51;102300.59;;;-0.95;100.00
29315;BME280;16320;53.954;9.506;2023-03-03T04:30:56;102304.09;;;-0.93;100.00
29315;BME280;16320;53.954;9.506;2023-03-03T04:34:02;102311.06;;;-0.88;100.00
29315;BME280;16320;53.954;9.506;2023-03-03T04:37:06;102311.81;;;-0.94;100.00
29315;BME280;16320;53.954;9.506;2023-03-03T04:40:11;102302.44;;;-0.90;100.00
29315;BME280;16320;53.954;9.506;2023-03-03T04:43:15;102312.69;;;-0.94;100.00
29315;BME280;16320;53.954;9.506;2023-03-03T04:46:19;102312.69;;;-0.94;100.00
29315;BME280;16320;53.954;9.506;2023-03-03T04:49:24;102320.38;;;-0.95;100.00
29315;BME280;16320;53.954;9.506;2023-03-03T04:52:29;102318.78;;;-0.88;100.00
29315;BME280;16320;53.954;9.506;2023-03-03T04:55:36;102320.31;;;-0.98;100.00
29315;BME280;16320;53.954;9.506;2023-03-03T04:58:40;102323.72;;;-0.99;100.00
29315;BME280;16320;53.954;9.506;2023-03-03T05:01:45;102333.25;;;-0.97;100.00
29315;BME280;16320;53.954;9.506;2023-03-03T05:04:49;102331.31;;;-1.07;100.00
29315;BME280;16320;53.954;9.506;2023-03-03T05:07:53;102341.47;;;-1.13;100.00
29315;BME280;16320;53.954;9.506;2023-03-03T05:10:58;102337.31;;;-1.06;100.00
29315;BME280;16320;53.954;9.506;2023-03-03T05:14:03;102337.53;;;-0.97;100.00
29315;BME280;16320;53.954;9.506;2023-03-03T05:17:07;102336.66;;;-0.98;100.00
29315;BME280;16320;53.954;9.506;2023-03-03T05:20:13;102330.75;;;-0.92;100.00
29315;BME280;16320;53.954;9.506;2023-03-03T05:23:18;102341.88;;;-0.95;100.00
29315;BME280;16320;53.954;9.506;2023-03-03T05:26:23;102324.06;;;-0.84;100.00
29315;BME280;16320;53.954;9.506;2023-03-03T05:29:28;102322.56;;;-0.72;100.00
29315;BME280;16320;53.954;9.506;2023-03-03T05:32:34;102309.84;;;-0.65;100.00
29315;BME280;16320;53.954;9.506;2023-03-03T05:35:40;102303.91;;;-0.59;100.00
29315;BME280;16320;53.954;9.506;2023-03-03T05:38:44;102322.00;;;-0.58;100.00
29315;BME280;16320;53.954;9.506;2023-03-03T05:41:48;102336.78;;;-0.50;100.00
29315;BME280;16320;53.954;9.506;2023-03-03T05:44:53;102338.63;;;-0.45;100.00
29315;BME280;16320;53.954;9.506;2023-03-03T05:47:57;102329.09;;;-0.47;100.00
29315;BME280;16320;53.954;9.506;2023-03-03T05:51:01;102328.28;;;-0.45;100.00
29315;BME280;16320;53.954;9.506;2023-03-03T05:54:06;102343.00;;;-0.39;100.00
29315;BME280;16320;53.954;9.506;2023-03-03T05:57:10;102355.22;;;-0.32;100.00
29315;BME280;16320;53.954;9.506;2023-03-03T06:00:15;102336.97;;;-0.41;100.00
29315;BME280;16320;53.954;9.506;2023-03-03T06:03:20;102342.91;;;-0.45;100.00
29315;BME280;16320;53.954;9.506;2023-03-03T06:06:25;102340.56;;;-0.33;100.00
29315;BME280;16320;53.954;9.506;2023-03-03T06:09:32;102348.38;;;-0.30;100.00
29315;BME280;16320;53.954;9.506;2023-03-03T06:12:36;102351.81;;;-0.31;100.00
29315;BME280;16320;53.954;9.506;2023-03-03T06:15:42;102351.97;;;-0.22;100.00
29315;BME280;16320;53.954;9.506;2023-03-03T06:18:47;102359.84;;;-0.15;100.00
29315;BME280;16320;53.954;9.506;2023-03-03T06:21:51;102357.19;;;-0.19;100.00
29315;BME280;16320;53.954;9.506;2023-03-03T06:24:55;102365.78;;;-0.20;100.00
29315;BME280;16320;53.954;9.506;2023-03-03T06:28:00;102369.25;;;-0.19;100.00
29315;BME280;16320;53.954;9.506;2023-03-03T06:31:06;102367.53;;;-0.19;100.00
29315;BME280;16320;53.954;9.506;2023-03-03T06:34:11;102377.09;;;-0.14;100.00
29315;BME280;16320;53.954;9.506;2023-03-03T06:37:15;102374.50;;;-0.14;100.00
29315;BME280;16320;53.954;9.506;2023-03-03T06:40:20;102376.22;;;-0.13;100.00
29315;BME280;16320;53.954;9.506;2023-03-03T06:43:24;102378.78;;;-0.15;100.00
29315;BME280;16320;53.954;9.506;2023-03-03T06:46:29;102377.94;;;-0.14;100.00
29315;BME280;16320;53.954;9.506;2023-03-03T06:49:34;102381.47;;;-0.10;100.00
29315;BME280;16320;53.954;9.506;2023-03-03T06:52:38;102397.94;;;-0.04;100.00
29315;BME280;16320;53.954;9.506;2023-03-03T06:55:43;102381.63;;;-0.03;100.00
29315;BME280;16320;53.954;9.506;2023-03-03T06:58:48;102386.81;;;-0.01;100.00
29315;BME280;16320;53.954;9.506;2023-03-03T07:01:52;102385.13;;;0.01;100.00
29315;BME280;16320;53.954;9.506;2023-03-03T07:04:57;102386.88;;;0.02;100.00
29315;BME280;16320;53.954;9.506;2023-03-03T07:08:09;102387.66;;;-0.01;100.00
29315;BME280;16320;53.954;9.506;2023-03-03T07:11:20;102379.88;;;-0.02;100.00
29315;BME280;16320;53.954;9.506;2023-03-03T07:14:26;102386.03;;;0.05;100.00
29315;BME280;16320;53.954;9.506;2023-03-03T07:17:33;102387.78;;;0.06;100.00
29315;BME280;16320;53.954;9.506;2023-03-03T07:20:38;102390.34;;;0.04;100.00
29315;BME280;16320;53.954;9.506;2023-03-03T07:23:47;102390.31;;;0.03;100.00
29315;BME280;16320;53.954;9.506;2023-03-03T07:26:52;102390.47;;;0.10;100.00
29315;BME280;16320;53.954;9.506;2023-03-03T07:30:27;102406.09;;;0.16;100.00
29315;BME280;16320;53.954;9.506;2023-03-03T07:33:39;102407.06;;;0.23;100.00
29315;BME280;16320;53.954;9.506;2023-03-03T07:36:48;102405.47;;;0.30;100.00
29315;BME280;16320;53.954;9.506;2023-03-03T07:39:52;102405.63;;;0.39;100.00
29315;BME280;16320;53.954;9.506;2023-03-03T07:42:57;102404.75;;;0.39;100.00
29315;BME280;16320;53.954;9.506;2023-03-03T07:49:35;102419.63;;;0.50;100.00
29315;BME280;16320;53.954;9.506;2023-03-03T07:52:48;102425.72;;;0.56;100.00
29315;BME280;16320;53.954;9.506;2023-03-03T07:56:00;102425.78;;;0.59;100.00
29315;BME280;16320;53.954;9.506;2023-03-03T07:59:31;102430.28;;;0.70;100.00
29315;BME280;16320;53.954;9.506;2023-03-03T08:03:18;102428.63;;;0.76;100.00
29315;BME280;16320;53.954;9.506;2023-03-03T08:06:43;102439.16;;;0.85;100.00
29315;BME280;16320;53.954;9.506;2023-03-03T08:13:19;102428.16;;;1.00;100.00
29315;BME280;16320;53.954;9.506;2023-03-03T08:16:34;102424.81;;;1.07;100.00
29315;BME280;16320;53.954;9.506;2023-03-03T08:19:40;102428.25;;;1.06;100.00
29315;BME280;16320;53.954;9.506;2023-03-03T08:22:45;102422.41;;;1.18;100.00
29315;BME280;16320;53.954;9.506;2023-03-03T08:25:50;102423.34;;;1.24;100.00
29315;BME280;16320;53.954;9.506;2023-03-03T08:28:56;102423.34;;;1.24;100.00
29315;BME280;16320;53.954;9.506;2023-03-03T08:32:00;102421.59;;;1.20;100.00
29315;BME280;16320;53.954;9.506;2023-03-03T08:35:05;102413.03;;;1.27;100.00
29315;BME280;16320;53.954;9.506;2023-03-03T08:38:13;102404.44;;;1.28;100.00
29315;BME280;16320;53.954;9.506;2023-03-03T08:41:18;102407.09;;;1.35;100.00
29315;BME280;16320;53.954;9.506;2023-03-03T08:44:22;102403.69;;;1.37;100.00
29315;BME280;16320;53.954;9.506;2023-03-03T08:47:26;102409.81;;;1.44;100.00
29315;BME280;16320;53.954;9.506;2023-03-03T08:50:30;102406.47;;;1.54;100.00
29315;BME280;16320;53.954;9.506;2023-03-03T08:53:35;102405.78;;;1.66;100.00
29315;BME280;16320;53.954;9.506;2023-03-03T08:56:41;102412.75;;;1.72;100.00
29315;BME280;16320;53.954;9.506;2023-03-03T08:59:47;102408.44;;;1.74;100.00
29315;BME280;16320;53.954;9.506;2023-03-03T09:02:52;102411.97;;;1.79;100.00
29315;BME280;16320;53.954;9.506;2023-03-03T09:05:57;102426.69;;;1.81;100.00
29315;BME280;16320;53.954;9.506;2023-03-03T09:09:01;102425.94;;;1.93;100.00
29315;BME280;16320;53.954;9.506;2023-03-03T09:12:19;102433.06;;;2.08;100.00
29315;BME280;16320;53.954;9.506;2023-03-03T09:15:30;102426.16;;;2.12;100.00
29315;BME280;16320;53.954;9.506;2023-03-03T09:18:37;102429.72;;;2.20;100.00
29315;BME280;16320;53.954;9.506;2023-03-03T09:21:42;102434.97;;;2.26;100.00
29315;BME280;16320;53.954;9.506;2023-03-03T09:24:49;102437.63;;;2.35;100.00
29315;BME280;16320;53.954;9.506;2023-03-03T09:27:54;102440.28;;;2.42;100.00
29315;BME280;16320;53.954;9.506;2023-03-03T09:31:02;102444.63;;;2.41;100.00
29315;BME280;16320;53.954;9.506;2023-03-03T09:34:37;102440.38;;;2.49;100.00
29315;BME280;16320;53.954;9.506;2023-03-03T09:37:50;102447.31;;;2.50;100.00
29315;BME280;16320;53.954;9.506;2023-03-03T09:41:44;102442.09;;;2.47;100.00
29315;BME280;16320;53.954;9.506;2023-03-03T09:45:18;102449.94;;;2.56;100.00
29315;BME280;16320;53.954;9.506;2023-03-03T09:52:32;102443.16;;;2.71;100.00
29315;BME280;16320;53.954;9.506;2023-03-03T10:10:24;102444.16;;;2.88;100.00
29315;BME280;16320;53.954;9.506;2023-03-03T10:14:10;102447.59;;;2.86;100.00
29315;BME280;16320;53.954;9.506;2023-03-03T10:17:59;102428.63;;;2.93;100.00
29315;BME280;16320;53.954;9.506;2023-03-03T10:21:24;102435.53;;;2.91;100.00
29315;BME280;16320;53.954;9.506;2023-03-03T10:31:36;102439.22;;;3.24;100.00
29315;BME280;16320;53.954;9.506;2023-03-03T10:35:20;102437.53;;;3.32;100.00
29315;BME280;16320;53.954;9.506;2023-03-03T10:38:54;102437.53;;;3.32;100.00
29315;BME280;16320;53.954;9.506;2023-03-03T10:49:21;102429.88;;;3.55;100.00
29315;BME280;16320;53.954;9.506;2023-03-03T10:52:50;102435.13;;;3.67;100.00
29315;BME280;16320;53.954;9.506;2023-03-03T11:03:30;102422.16;;;3.78;100.00
29315;BME280;16320;53.954;9.506;2023-03-03T11:07:28;102415.28;;;3.90;100.00
29315;BME280;16320;53.954;9.506;2023-03-03T11:21:50;102404.13;;;4.55;100.00
29315;BME280;16320;53.954;9.506;2023-03-03T11:32:39;102375.50;;;4.80;100.00
29315;BME280;16320;53.954;9.506;2023-03-03T11:36:14;102377.22;;;4.81;100.00
29315;BME280;16320;53.954;9.506;2023-03-03T11:39:29;102376.34;;;4.88;100.00
29315;BME280;16320;53.954;9.506;2023-03-03T11:46:42;102347.72;;;4.79;100.00
29315;BME280;16320;53.954;9.506;2023-03-03T11:50:15;102345.09;;;4.77;100.00
29315;BME280;16320;53.954;9.506;2023-03-03T11:56:47;102272.19;;;4.85;100.00
29315;BME280;16320;53.954;9.506;2023-03-03T12:03:44;102221.75;;;5.11;100.00
29315;BME280;16320;53.954;9.506;2023-03-03T12:07:13;102192.28;;;5.04;100.00
29315;BME280;16320;53.954;9.506;2023-03-03T12:10:42;102180.09;;;5.09;100.00
29315;BME280;16320;53.954;9.506;2023-03-03T12:14:22;102155.78;;;5.09;100.00
29315;BME280;16320;53.954;9.506;2023-03-03T12:24:41;102127.84;;;5.31;100.00
29315;BME280;16320;53.954;9.506;2023-03-03T12:28:10;102106.16;;;5.27;100.00
29315;BME280;16320;53.954;9.506;2023-03-03T12:31:50;102097.53;;;5.19;100.00
29315;BME280;16320;53.954;9.506;2023-03-03T12:43:02;102077.47;;;5.34;100.00
29315;BME280;16320;53.954;9.506;2023-03-03T12:46:53;102069.59;;;5.40;100.00
29315;BME280;16320;53.954;9.506;2023-03-03T12:53:49;102062.63;;;5.42;100.00
29315;BME280;16320;53.954;9.506;2023-03-03T12:57:18;102067.00;;;5.38;100.00
29315;BME280;16320;53.954;9.506;2023-03-03T13:04:25;102064.44;;;5.34;100.00
29315;BME280;16320;53.954;9.506;2023-03-03T13:11:51;102055.78;;;5.31;100.00
29315;BME280;16320;53.954;9.506;2023-03-03T13:15:23;102047.00;;;5.39;100.00
29315;BME280;16320;53.954;9.506;2023-03-03T13:19:00;102044.47;;;5.31;100.00
29315;BME280;16320;53.954;9.506;2023-03-03T13:22:17;102054.00;;;5.37;100.00
29315;BME280;16320;53.954;9.506;2023-03-03T13:25:54;102050.56;;;5.31;100.00
29315;BME280;16320;53.954;9.506;2023-03-03T13:32:59;102048.00;;;5.25;100.00
29315;BME280;16320;53.954;9.506;2023-03-03T13:36:08;102053.22;;;5.24;100.00
29315;BME280;16320;53.954;9.506;2023-03-03T13:39:22;102054.00;;;5.34;100.00
29315;BME280;16320;53.954;9.506;2023-03-03T13:42:46;102034.94;;;5.31;100.00
29315;BME280;16320;53.954;9.506;2023-03-03T13:46:14;102027.13;;;5.30;100.00
29315;BME280;16320;53.954;9.506;2023-03-03T13:49:36;102031.44;;;5.29;100.00
29315;BME280;16320;53.954;9.506;2023-03-03T13:57:14;102013.16;;;5.36;100.00
29315;BME280;16320;53.954;9.506;2023-03-03T16:35:22;101900.69;;;4.92;100.00
29315;BME280;16320;53.954;9.506;2023-03-03T16:38:37;101903.31;;;4.90;100.00
29315;BME280;16320;53.954;9.506;2023-03-03T16:42:01;101897.28;;;4.85;100.00
29315;BME280;16320;53.954;9.506;2023-03-03T16:45:25;101899.03;;;4.86;100.00
29315;BME280;16320;53.954;9.506;2023-03-03T16:52:17;101909.50;;;4.77;100.00
29315;BME280;16320;53.954;9.506;2023-03-03T16:55:58;101912.13;;;4.77;100.00
29315;BME280;16320;53.954;9.506;2023-03-03T16:59:54;101904.34;;;4.72;100.00
29315;BME280;16320;53.954;9.506;2023-03-03T17:04:18;101910.44;;;4.70;100.00
29315;BME280;16320;53.954;9.506;2023-03-03T17:08:15;101907.88;;;4.67;100.00
29315;BME280;16320;53.954;9.506;2023-03-03T17:25:21;101927.88;;;4.58;100.00
29315;BME280;16320;53.954;9.506;2023-03-03T17:29:05;101928.75;;;4.56;100.00
29315;BME280;16320;53.954;9.506;2023-03-03T17:36:36;101934.91;;;4.47;100.00
29315;BME280;16320;53.954;9.506;2023-03-03T17:40:37;101940.97;;;4.45;100.00
29315;BME280;16320;53.954;9.506;2023-03-03T17:47:59;101950.47;;;4.53;100.00
29315;BME280;16320;53.954;9.506;2023-03-03T17:55:24;101940.13;;;4.44;100.00
29315;BME280;16320;53.954;9.506;2023-03-03T18:10:34;101943.69;;;4.31;100.00
29315;BME280;16320;53.954;9.506;2023-03-03T18:24:52;101940.22;;;4.29;100.00
29315;BME280;16320;53.954;9.506;2023-03-03T18:31:25;101938.53;;;4.18;100.00
29315;BME280;16320;53.954;9.506;2023-03-03T18:34:38;101950.69;;;4.22;100.00
29315;BME280;16320;53.954;9.506;2023-03-03T18:37:44;101944.56;;;4.27;100.00
29315;BME280;16320;53.954;9.506;2023-03-03T18:41:20;101941.97;;;4.24;100.00
29315;BME280;16320;53.954;9.506;2023-03-03T18:44:29;101941.97;;;4.25;100.00
29315;BME280;16320;53.954;9.506;2023-03-03T18:51:10;101942.00;;;4.20;100.00
29315;BME280;16320;53.954;9.506;2023-03-03T18:57:20;101951.56;;;4.14;100.00
29315;BME280;16320;53.954;9.506;2023-03-03T19:00:28;101955.88;;;4.19;100.00
29315;BME280;16320;53.954;9.506;2023-03-03T19:09:59;101974.00;;;4.32;100.00
29315;BME280;16320;53.954;9.506;2023-03-03T19:16:35;101978.34;;;4.33;100.00
29315;BME280;16320;53.954;9.506;2023-03-03T19:20:12;101991.34;;;4.37;100.00
29315;BME280;16320;53.954;9.506;2023-03-03T19:27:28;101991.34;;;4.39;100.00
29315;BME280;16320;53.954;9.506;2023-03-03T19:34:00;101986.97;;;4.41;100.00
29315;BME280;16320;53.954;9.506;2023-03-03T19:47:47;101986.97;;;4.41;100.00
29315;BME280;16320;53.954;9.506;2023-03-03T20:08:30;101976.63;;;4.29;100.00
29315;BME280;16320;53.954;9.506;2023-03-03T20:15:49;101973.22;;;4.17;100.00
29315;BME280;16320;53.954;9.506;2023-03-03T20:51:01;101995.88;;;3.84;100.00
29315;BME280;16320;53.954;9.506;2023-03-03T20:57:34;102001.94;;;3.85;100.00
29315;BME280;16320;53.954;9.506;2023-03-03T21:01:09;102002.84;;;3.85;100.00
29315;BME280;16320;53.954;9.506;2023-03-03T21:04:30;102003.69;;;3.86;100.00
29315;BME280;16320;53.954;9.506;2023-03-03T21:07:37;102001.06;;;3.92;100.00
29315;BME280;16320;53.954;9.506;2023-03-03T21:10:55;101995.00;;;3.95;100.00
29315;BME280;16320;53.954;9.506;2023-03-03T21:14:23;101993.25;;;3.97;100.00
29315;BME280;16320;53.954;9.506;2023-03-03T21:17:30;102003.66;;;4.00;100.00
29315;BME280;16320;53.954;9.506;2023-03-03T21:20:35;102005.38;;;3.99;100.00
29315;BME280;16320;53.954;9.506;2023-03-03T21:23:39;101987.16;;;4.04;100.00
29315;BME280;16320;53.954;9.506;2023-03-03T21:26:58;102001.91;;;4.03;100.00
29315;BME280;16320;53.954;9.506;2023-03-03T21:30:12;101994.09;;;4.08;100.00
29315;BME280;16320;53.954;9.506;2023-03-03T21:33:50;101991.50;;;4.03;100.00
29315;BME280;16320;53.954;9.506;2023-03-03T21:37:00;101983.66;;;4.11;100.00
29315;BME280;16320;53.954;9.506;2023-03-03T21:40:19;101975.81;;;4.16;100.00
29315;BME280;16320;53.954;9.506;2023-03-03T21:43:39;101969.75;;;4.20;100.00
29315;BME280;16320;53.954;9.506;2023-03-03T21:46:45;101974.94;;;4.21;100.00
29315;BME280;16320;53.954;9.506;2023-03-03T21:49:51;101966.22;;;4.29;100.00
29315;BME280;16320;53.954;9.506;2023-03-03T21:52:55;101955.81;;;4.30;100.00
29315;BME280;16320;53.954;9.506;2023-03-03T21:56:00;101960.13;;;4.37;100.00
29315;BME280;16320;53.954;9.506;2023-03-03T21:59:07;101946.19;;;4.42;100.00
29315;BME280;16320;53.954;9.506;2023-03-03T22:02:12;101946.19;;;4.45;100.00
29315;BME280;16320;53.954;9.506;2023-03-03T22:05:17;101938.34;;;4.49;100.00
29315;BME280;16320;53.954;9.506;2023-03-03T22:08:21;101926.19;;;4.53;100.00
29315;BME280;16320;53.954;9.506;2023-03-03T22:11:27;101924.47;;;4.53;100.00
29315;BME280;16320;53.954;9.506;2023-03-03T22:14:31;101920.09;;;4.55;100.00
29315;BME280;16320;53.954;9.506;2023-03-03T22:17:36;101913.97;;;4.63;100.00
29315;BME280;16320;53.954;9.506;2023-03-03T22:20:40;101913.06;;;4.67;100.00
29315;BME280;16320;53.954;9.506;2023-03-03T22:23:46;101903.56;;;4.63;100.00
29315;BME280;16320;53.954;9.506;2023-03-03T22:26:50;101901.72;;;4.74;100.00
29315;BME280;16320;53.954;9.506;2023-03-03T22:29:55;101897.38;;;4.76;100.00
29315;BME280;16320;53.954;9.506;2023-03-03T22:32:59;101896.44;;;4.83;100.00
29315;BME280;16320;53.954;9.506;2023-03-03T22:36:05;101887.78;;;4.83;100.00
29315;BME280;16320;53.954;9.506;2023-03-03T22:39:09;101890.38;;;4.83;100.00
29315;BME280;16320;53.954;9.506;2023-03-03T22:42:14;101886.03;;;4.83;100.00
29315;BME280;16320;53.954;9.506;2023-03-03T22:45:18;101877.34;;;4.84;100.00
29315;BME280;16320;53.954;9.506;2023-03-03T22:48:25;101874.66;;;4.93;100.00
29315;BME280;16320;53.954;9.506;2023-03-03T22:51:30;101863.34;;;4.98;100.00
29315;BME280;16320;53.954;9.506;2023-03-03T22:54:34;101860.75;;;4.94;100.00
29315;BME280;16320;53.954;9.506;2023-03-03T22:57:38;101848.59;;;4.95;100.00
29315;BME280;16320;53.954;9.506;2023-03-03T23:00:42;101855.56;;;4.94;100.00
29315;BME280;16320;53.954;9.506;2023-03-03T23:03:47;101844.19;;;5.02;100.00
29315;BME280;16320;53.954;9.506;2023-03-03T23:06:53;101847.66;;;5.02;100.00
29315;BME280;16320;53.954;9.506;2023-03-03T23:09:57;101835.53;;;5.00;100.00
29315;BME280;16320;53.954;9.506;2023-03-03T23:13:03;101827.69;;;5.04;100.00
29315;BME280;16320;53.954;9.506;2023-03-03T23:16:07;101821.66;;;5.01;100.00
29315;BME280;16320;53.954;9.506;2023-03-03T23:19:11;101839.00;;;4.99;100.00
29315;BME280;16320;53.954;9.506;2023-03-03T23:22:16;101837.19;;;5.07;100.00
29315;BME280;16320;53.954;9.506;2023-03-03T23:25:21;101826.84;;;5.02;100.00
29315;BME280;16320;53.954;9.506;2023-03-03T23:28:27;101829.44;;;5.04;100.00
29315;BME280;16320;53.954;9.506;2023-03-03T23:31:31;101826.81;;;5.05;100.00
29315;BME280;16320;53.954;9.506;2023-03-03T23:34:35;101814.63;;;5.07;100.00
29315;BME280;16320;53.954;9.506;2023-03-03T23:37:39;101818.88;;;5.14;100.00
29315;BME280;16320;53.954;9.506;2023-03-03T23:40:44;101817.19;;;5.10;100.00